Time;durP1;ratioP1;P1;durP2;ratioP2;P2;SDS_P1;SDS_P2;PMS_P1;PMS_P2;Temp;Humidity;BMP_temperature;BMP_pressure;BME280_temperature;BME280_humidity;BME280_pressure;Samples;Min_cycle;Max_cycle;Signal;HPM_P1;HPM_P2
2024/01/24 00:02:03;;;;;;;7.68;3.30;;;8.10;99.90;;;;;;4975894;28;20689;-77
2024/01/24 00:04:34;;;;;;;11.60;3.78;;;8.00;99.90;;;;;;4976411;28;20223;-77
2024/01/24 00:07:05;;;;;;;14.35;6.72;;;8.00;99.90;;;;;;4976385;28;20230;-80
2024/01/24 00:09:33;;;;;;;8.15;3.10;;;8.00;99.90;;;;;;4944360;28;20232;-80
2024/01/24 00:12:00;;;;;;;10.93;3.42;;;8.00;99.90;;;;;;4936615;29;20690;-80
2024/01/24 00:14:28;;;;;;;10.85;3.50;;;8.00;99.90;;;;;;4937852;29;20251;-80
2024/01/24 00:16:56;;;;;;;8.93;3.08;;;7.90;99.90;;;;;;4954964;29;20228;-79
2024/01/24 00:19:23;;;;;;;7.80;2.65;;;7.90;99.90;;;;;;4957235;29;20622;-78
2024/01/24 00:21:50;;;;;;;11.27;4.85;;;7.90;99.90;;;;;;4955927;29;20232;-77
2024/01/24 00:24:19;;;;;;;5.15;3.25;;;7.90;99.90;;;;;;4956647;29;20228;-80
2024/01/24 00:26:46;;;;;;;8.40;2.92;;;7.90;99.90;;;;;;4956214;29;20278;-80
2024/01/24 00:29:31;;;;;;;11.38;3.50;;;7.90;99.90;;;;;;4956774;29;20268;-79
2024/01/24 00:32:01;;;;;;;12.60;3.72;;;7.80;99.90;;;;;;4956495;29;20327;-80
2024/01/24 00:34:28;;;;;;;7.78;3.00;;;7.80;99.90;;;;;;4956821;29;20236;-77
2024/01/24 00:36:58;;;;;;;5.93;3.20;;;7.70;99.90;;;;;;4955786;29;20246;-77
2024/01/24 00:39:27;;;;;;;5.25;2.92;;;7.70;99.90;;;;;;4957047;29;20590;-81
2024/01/24 00:41:58;;;;;;;10.43;3.30;;;7.80;99.90;;;;;;4955748;29;20232;-77
2024/01/24 00:44:25;;;;;;;7.25;2.80;;;7.80;99.90;;;;;;4956514;29;20224;-80
2024/01/24 00:46:52;;;;;;;6.63;3.40;;;7.90;99.90;;;;;;4956314;29;20256;-80
2024/01/24 00:49:19;;;;;;;6.25;3.40;;;7.90;99.90;;;;;;4956537;29;20231;-81
2024/01/24 00:51:46;;;;;;;8.20;3.13;;;7.90;99.90;;;;;;4955649;29;20228;-81
2024/01/24 00:54:13;;;;;;;11.20;3.25;;;7.80;99.90;;;;;;4970484;28;20251;-81
2024/01/24 00:56:42;;;;;;;7.40;2.92;;;7.90;99.90;;;;;;4974892;28;20255;-80
2024/01/24 00:59:09;;;;;;;11.45;3.50;;;7.90;99.90;;;;;;4975510;28;20219;-77
2024/01/24 01:01:37;;;;;;;9.43;3.70;;;8.00;99.90;;;;;;4975047;28;20231;-78
2024/01/24 01:04:04;;;;;;;7.40;3.17;;;8.00;99.90;;;;;;4974514;28;20255;-77
2024/01/24 01:06:31;;;;;;;4.65;3.20;;;8.00;99.90;;;;;;4974773;28;20247;-76
2024/01/24 01:09:00;;;;;;;6.75;3.10;;;8.00;99.90;;;;;;4974134;28;20241;-77
2024/01/24 01:11:27;;;;;;;26.13;14.45;;;8.00;99.90;;;;;;4974768;28;20258;-76
2024/01/24 01:13:56;;;;;;;8.43;2.92;;;8.00;99.90;;;;;;4973466;28;20251;-79
2024/01/24 01:16:23;;;;;;;5.43;3.33;;;8.10;99.90;;;;;;4961797;28;20240;-82
2024/01/24 01:18:50;;;;;;;6.30;4.03;;;8.10;99.90;;;;;;4955734;29;20235;-81
2024/01/24 01:21:17;;;;;;;7.05;3.90;;;8.20;99.90;;;;;;4954206;29;20301;-78
2024/01/24 01:23:44;;;;;;;5.57;2.60;;;8.20;99.90;;;;;;4955688;29;20236;-79
2024/01/24 01:26:11;;;;;;;5.05;3.35;;;8.30;99.90;;;;;;4954282;29;20244;-80
2024/01/24 01:28:38;;;;;;;10.27;4.57;;;8.20;99.90;;;;;;4956038;29;20232;-80
2024/01/24 01:31:07;;;;;;;8.40;3.40;;;8.20;99.90;;;;;;4955642;29;20263;-81
2024/01/24 01:33:34;;;;;;;23.70;17.98;;;8.30;99.90;;;;;;4955087;29;20240;-80
2024/01/24 01:36:02;;;;;;;4.28;2.20;;;8.30;99.90;;;;;;4953271;29;20264;-81
2024/01/24 01:38:29;;;;;;;10.95;6.38;;;8.20;99.90;;;;;;4955900;29;20682;-76
2024/01/24 01:40:57;;;;;;;8.95;2.45;;;8.20;99.90;;;;;;4954768;29;20243;-77
2024/01/24 01:43:24;;;;;;;2.95;2.60;;;8.20;99.90;;;;;;4954753;29;20232;-76
2024/01/24 01:45:53;;;;;;;2.97;2.22;;;8.30;99.90;;;;;;4954975;29;20223;-77
2024/01/24 01:48:22;;;;;;;3.25;2.00;;;8.30;99.90;;;;;;4955443;29;20239;-79
2024/01/24 01:50:49;;;;;;;6.03;2.50;;;8.30;99.90;;;;;;4955573;29;20220;-80
2024/01/24 01:53:16;;;;;;;2.70;1.90;;;8.30;99.90;;;;;;4955089;29;20239;-77
2024/01/24 01:55:44;;;;;;;3.95;2.65;;;8.30;99.90;;;;;;4955335;29;20228;-77
2024/01/24 01:58:11;;;;;;;3.63;2.13;;;8.30;99.90;;;;;;4954611;29;20712;-80
2024/01/24 02:00:39;;;;;;;2.10;1.90;;;8.30;99.90;;;;;;4955272;29;20232;-78
2024/01/24 02:03:07;;;;;;;2.45;2.17;;;8.30;99.90;;;;;;4953749;29;20339;-80
2024/01/24 02:05:36;;;;;;;4.38;2.17;;;8.30;99.90;;;;;;4955837;29;20236;-80
2024/01/24 02:08:04;;;;;;;6.25;4.50;;;8.30;99.90;;;;;;4954529;29;20228;-80
2024/01/24 02:10:31;;;;;;;2.67;2.40;;;8.40;99.90;;;;;;4955408;29;20239;-77
2024/01/24 02:12:59;;;;;;;7.10;3.00;;;8.40;99.90;;;;;;4954592;29;20230;-80
2024/01/24 02:15:26;;;;;;;5.10;3.25;;;8.40;99.90;;;;;;4954833;29;20308;-80
2024/01/24 02:17:53;;;;;;;5.10;2.42;;;8.40;99.90;;;;;;4955464;29;20601;-80
2024/01/24 02:20:22;;;;;;;11.27;5.18;;;8.50;99.90;;;;;;4955030;29;20235;-80
2024/01/24 02:22:50;;;;;;;4.97;3.53;;;8.50;99.90;;;;;;4955848;29;20240;-80
2024/01/24 02:25:19;;;;;;;2.95;1.63;;;8.50;99.90;;;;;;4954726;28;20227;-80
2024/01/24 02:27:46;;;;;;;3.63;2.53;;;8.50;99.90;;;;;;4955295;29;20248;-80
2024/01/24 02:30:14;;;;;;;2.35;1.60;;;8.60;99.90;;;;;;4954741;29;20224;-80
2024/01/24 02:32:41;;;;;;;5.45;3.15;;;8.60;99.90;;;;;;4954956;29;20246;-78
2024/01/24 02:35:08;;;;;;;3.25;2.20;;;8.50;99.90;;;;;;4954332;29;20266;-81
2024/01/24 02:37:35;;;;;;;5.60;4.22;;;8.60;99.90;;;;;;4955003;29;20232;-80
2024/01/24 02:40:02;;;;;;;4.90;2.70;;;8.60;99.90;;;;;;4952400;29;20231;-78
2024/01/24 02:42:31;;;;;;;4.10;2.42;;;8.60;99.90;;;;;;4936474;29;20232;-77
2024/01/24 02:44:58;;;;;;;4.40;2.15;;;8.70;99.90;;;;;;4934465;29;20229;-78
2024/01/24 02:47:25;;;;;;;2.97;2.00;;;8.70;99.90;;;;;;4934293;29;20228;-75
2024/01/24 02:49:52;;;;;;;5.68;4.07;;;8.70;99.90;;;;;;4934601;29;20243;-76
2024/01/24 02:52:19;;;;;;;5.15;2.63;;;8.80;99.90;;;;;;4934156;29;21057;-76
2024/01/24 02:54:47;;;;;;;2.75;2.55;;;8.80;99.90;;;;;;4935659;29;20229;-81
2024/01/24 02:57:14;;;;;;;2.78;1.60;;;8.80;99.90;;;;;;4935211;29;20243;-77
2024/01/24 02:59:42;;;;;;;2.58;2.05;;;8.90;99.90;;;;;;4935636;29;20232;-77
2024/01/24 03:02:09;;;;;;;4.68;2.60;;;8.90;99.90;;;;;;4935017;29;20228;-77
2024/01/24 03:04:36;;;;;;;2.30;1.80;;;8.90;99.90;;;;;;4935788;29;20248;-81
2024/01/24 03:07:04;;;;;;;2.38;2.22;;;8.90;99.90;;;;;;4933530;29;20221;-78
2024/01/24 03:09:31;;;;;;;2.45;2.25;;;8.90;99.90;;;;;;4935867;29;20229;-78
2024/01/24 03:11:58;;;;;;;2.95;2.03;;;8.90;99.90;;;;;;4935786;29;20224;-80
2024/01/24 03:14:25;;;;;;;2.88;1.95;;;9.00;99.90;;;;;;4935051;29;20240;-80
2024/01/24 03:16:54;;;;;;;8.13;4.95;;;9.00;99.90;;;;;;4935804;29;20237;-80
2024/01/24 03:19:21;;;;;;;4.07;2.80;;;9.10;99.90;;;;;;4935406;29;20243;-80
2024/01/24 03:21:48;;;;;;;1.70;1.40;;;9.10;99.90;;;;;;4935535;29;20224;-80
2024/01/24 03:24:15;;;;;;;3.65;3.28;;;9.10;99.90;;;;;;4935065;29;20252;-80
2024/01/24 03:26:42;;;;;;;3.22;1.98;;;9.20;99.90;;;;;;4935540;29;20295;-80
2024/01/24 03:29:09;;;;;;;3.38;2.33;;;9.20;99.90;;;;;;4934687;29;20317;-80
2024/01/24 03:31:36;;;;;;;4.40;3.15;;;9.30;99.90;;;;;;4935857;29;20234;-80
2024/01/24 03:34:07;;;;;;;3.28;1.77;;;9.30;99.90;;;;;;4934998;29;20229;-80
2024/01/24 03:36:34;;;;;;;2.08;1.88;;;9.30;99.90;;;;;;4935516;29;20225;-80
2024/01/24 03:39:01;;;;;;;3.70;3.33;;;9.30;99.90;;;;;;4938446;29;20228;-80
2024/01/24 03:41:28;;;;;;;5.38;2.90;;;9.40;99.90;;;;;;4938791;29;20220;-80
2024/01/24 03:43:55;;;;;;;1.55;1.45;;;9.40;99.90;;;;;;4938800;29;20229;-77
2024/01/24 03:46:23;;;;;;;1.95;1.80;;;9.40;99.90;;;;;;4938716;29;20683;-77
2024/01/24 03:48:50;;;;;;;3.75;1.92;;;9.50;99.90;;;;;;4938739;29;20248;-77
2024/01/24 03:51:18;;;;;;;2.08;1.70;;;9.50;99.90;;;;;;4938050;29;20228;-77
2024/01/24 03:53:45;;;;;;;5.88;2.40;;;9.50;99.90;;;;;;4938391;29;20232;-77
2024/01/24 03:56:12;;;;;;;4.45;1.88;;;9.50;99.90;;;;;;4938127;29;20224;-77
2024/01/24 03:58:39;;;;;;;3.38;2.67;;;9.50;99.90;;;;;;4938308;29;20241;-77
2024/01/24 04:01:07;;;;;;;4.70;3.40;;;9.60;99.90;;;;;;4937884;29;20221;-78
2024/01/24 04:03:34;;;;;;;3.08;1.95;;;9.60;99.90;;;;;;4938426;29;20710;-77
2024/01/24 04:06:01;;;;;;;2.05;1.85;;;9.70;99.90;;;;;;4938323;29;20691;-77
2024/01/24 04:08:29;;;;;;;1.63;1.52;;;9.80;99.90;;;;;;4937850;29;20227;-77
2024/01/24 04:10:56;;;;;;;2.28;2.08;;;9.80;99.90;;;;;;4938533;29;20229;-77
2024/01/24 04:13:23;;;;;;;2.85;1.90;;;9.80;99.90;;;;;;4937919;29;20696;-77
2024/01/24 04:15:55;;;;;;;4.90;3.42;;;9.90;99.90;;;;;;4937488;29;20699;-77
2024/01/24 04:18:21;;;;;;;3.17;1.65;;;9.90;99.90;;;;;;4937409;29;20236;-77
2024/01/24 04:20:48;;;;;;;4.22;2.25;;;9.90;99.90;;;;;;4938343;29;20713;-77
2024/01/24 04:23:15;;;;;;;2.42;2.22;;;9.90;99.90;;;;;;4927134;29;20237;-77
2024/01/24 04:25:44;;;;;;;5.35;1.92;;;9.90;99.90;;;;;;4937823;29;20232;-77
2024/01/24 04:28:11;;;;;;;3.25;1.77;;;9.90;99.90;;;;;;4937867;29;20763;-78
2024/01/24 04:30:38;;;;;;;2.17;1.50;;;9.90;99.90;;;;;;4938033;29;20228;-77
2024/01/24 04:33:07;;;;;;;6.70;2.83;;;9.90;99.90;;;;;;4938034;29;20232;-77
2024/01/24 04:35:34;;;;;;;4.28;1.70;;;9.90;99.90;;;;;;4937488;29;20321;-80
2024/01/24 04:38:01;;;;;;;4.28;1.80;;;9.90;99.90;;;;;;4937919;29;20237;-77
2024/01/24 04:40:28;;;;;;;4.65;1.63;;;9.90;99.90;;;;;;4937515;29;20243;-80
2024/01/24 04:42:58;;;;;;;2.92;2.25;;;10.00;99.90;;;;;;4937879;29;20232;-77
2024/01/24 04:45:25;;;;;;;7.10;3.42;;;10.00;99.90;;;;;;4937174;29;20255;-80
2024/01/24 04:47:52;;;;;;;5.20;1.88;;;10.00;99.90;;;;;;4937801;29;20255;-80
2024/01/24 04:50:19;;;;;;;2.55;1.73;;;10.10;99.90;;;;;;4936012;29;20238;-80
2024/01/24 04:52:46;;;;;;;7.60;1.98;;;10.10;99.90;;;;;;4937742;29;20695;-80
2024/01/24 04:55:13;;;;;;;3.95;1.73;;;10.20;99.90;;;;;;4937285;29;20228;-80
2024/01/24 04:57:41;;;;;;;3.97;2.15;;;10.20;99.90;;;;;;4936972;29;20671;-77
2024/01/24 05:00:11;;;;;;;5.53;1.67;;;10.30;99.90;;;;;;4937714;29;20238;-80
2024/01/24 05:02:39;;;;;;;3.75;2.80;;;10.30;99.90;;;;;;4937410;29;20319;-80
2024/01/24 05:05:06;;;;;;;3.80;2.20;;;10.40;99.90;;;;;;4937647;29;20787;-80
2024/01/24 05:07:34;;;;;;;3.15;1.80;;;10.40;99.90;;;;;;4936515;29;20239;-77
2024/01/24 05:10:02;;;;;;;5.38;3.08;;;10.40;99.90;;;;;;4937551;29;20227;-77
2024/01/24 05:12:29;;;;;;;3.92;2.80;;;10.50;99.90;;;;;;4936862;29;20233;-77
2024/01/24 05:14:59;;;;;;;4.00;2.20;;;10.60;99.90;;;;;;4937265;29;20224;-77
2024/01/24 05:17:27;;;;;;;5.72;4.43;;;10.60;99.90;;;;;;4936621;29;20224;-77
2024/01/24 05:19:55;;;;;;;10.38;7.20;;;10.60;99.90;;;;;;4937504;29;20564;-77
2024/01/24 05:22:22;;;;;;;2.22;2.03;;;10.70;99.90;;;;;;4936064;29;20706;-78
2024/01/24 05:24:49;;;;;;;12.95;6.78;;;10.70;99.90;;;;;;4937175;29;20239;-79
2024/01/24 05:27:16;;;;;;;1.50;1.35;;;10.80;99.90;;;;;;4937352;29;20236;-77
2024/01/24 05:29:45;;;;;;;3.47;2.28;;;10.80;99.90;;;;;;4936575;29;20220;-77
2024/01/24 05:32:12;;;;;;;3.42;2.90;;;10.80;99.90;;;;;;4936743;29;20232;-77
2024/01/24 05:34:40;;;;;;;4.78;1.95;;;10.80;99.90;;;;;;4936764;29;20232;-80
2024/01/24 05:37:07;;;;;;;2.35;1.65;;;10.80;99.90;;;;;;4937023;29;20347;-80
2024/01/24 05:39:35;;;;;;;6.65;4.47;;;10.90;99.90;;;;;;4936830;29;20229;-77
2024/01/24 05:42:02;;;;;;;12.65;7.25;;;10.80;99.90;;;;;;4937076;29;20232;-76
2024/01/24 05:44:29;;;;;;;3.70;2.15;;;10.90;99.90;;;;;;4935589;29;20252;-76
2024/01/24 05:46:56;;;;;;;1.48;1.20;;;11.00;99.90;;;;;;4936784;29;20228;-77
2024/01/24 05:49:23;;;;;;;4.45;1.70;;;11.00;99.90;;;;;;4936014;29;20228;-76
2024/01/24 05:51:52;;;;;;;2.50;1.38;;;11.00;99.90;;;;;;4936546;29;20235;-80
2024/01/24 05:54:19;;;;;;;2.20;2.00;;;11.10;99.90;;;;;;4936080;29;20232;-76
2024/01/24 05:56:46;;;;;;;3.88;1.63;;;11.00;99.90;;;;;;4936392;29;20221;-76
2024/01/24 05:59:13;;;;;;;1.50;1.30;;;11.00;99.90;;;;;;4936743;29;20236;-78
2024/01/24 06:01:40;;;;;;;2.63;1.85;;;11.10;99.90;;;;;;4935807;29;20243;-77
2024/01/24 06:04:07;;;;;;;3.78;3.00;;;11.10;99.90;;;;;;4936269;29;20231;-76
2024/01/24 06:06:34;;;;;;;3.50;1.75;;;11.10;99.90;;;;;;4935739;29;20229;-76
2024/01/24 06:09:03;;;;;;;3.80;2.83;;;11.10;99.90;;;;;;4936807;29;20228;-80
2024/01/24 06:11:30;;;;;;;6.80;6.05;;;11.10;99.90;;;;;;4936475;29;20311;-79
2024/01/24 06:13:57;;;;;;;4.55;3.47;;;11.10;99.90;;;;;;4936552;29;20229;-79
2024/01/24 06:16:24;;;;;;;8.02;4.35;;;11.20;99.90;;;;;;4935832;29;20252;-79
2024/01/24 06:18:51;;;;;;;7.68;4.85;;;11.20;99.90;;;;;;4934838;29;20224;-79
2024/01/24 06:21:18;;;;;;;8.90;5.13;;;11.20;99.90;;;;;;4936146;29;20225;-80
2024/01/24 06:23:46;;;;;;;4.35;3.10;;;11.20;99.90;;;;;;4935331;29;20267;-80
2024/01/24 06:26:15;;;;;;;22.15;14.70;;;11.20;99.90;;;;;;4936088;29;20231;-80
2024/01/24 06:28:48;;;;;;;8.82;4.82;;;11.30;99.90;;;;;;4934347;29;20228;-79
2024/01/24 06:31:17;;;;;;;2.70;2.28;;;11.40;99.90;;;;;;4935375;29;20287;-79
2024/01/24 06:33:44;;;;;;;2.10;1.90;;;11.40;99.90;;;;;;4934918;29;20264;-79
2024/01/24 06:36:11;;;;;;;2.58;2.38;;;11.50;99.90;;;;;;4935836;29;20240;-79
2024/01/24 06:38:38;;;;;;;3.88;2.72;;;11.50;99.90;;;;;;4935193;29;20252;-79
2024/01/24 06:41:05;;;;;;;7.80;4.43;;;11.50;99.90;;;;;;4936013;29;20228;-79
2024/01/24 06:43:39;;;;;;;3.13;2.75;;;11.60;99.90;;;;;;4934686;29;20248;-80
2024/01/24 06:46:08;;;;;;;2.90;2.20;;;11.60;99.90;;;;;;4936648;29;20501;-79
2024/01/24 06:48:35;;;;;;;3.80;2.65;;;11.60;99.90;;;;;;4935429;29;20225;-80
2024/01/24 06:51:02;;;;;;;2.72;2.10;;;11.70;99.90;;;;;;4935700;29;20236;-80
2024/01/24 06:53:29;;;;;;;6.32;5.72;;;11.70;99.90;;;;;;4935328;29;20228;-80
2024/01/24 06:55:56;;;;;;;5.22;3.40;;;11.70;99.90;;;;;;4935549;29;20240;-80
2024/01/24 06:58:24;;;;;;;5.75;1.95;;;11.80;99.90;;;;;;4925791;29;20557;-80
2024/01/24 07:00:52;;;;;;;4.30;2.17;;;11.90;99.90;;;;;;4935049;29;20228;-80
2024/01/24 07:03:22;;;;;;;8.93;5.30;;;11.90;99.90;;;;;;4935786;29;20228;-80
2024/01/24 07:05:51;;;;;;;8.90;3.35;;;11.90;99.90;;;;;;4935497;29;20231;-80
2024/01/24 07:08:18;;;;;;;8.43;3.88;;;11.90;99.90;;;;;;4936214;29;20241;-80
2024/01/24 07:10:45;;;;;;;6.05;3.60;;;11.80;99.90;;;;;;4935325;29;20747;-80
2024/01/24 07:13:12;;;;;;;9.32;5.72;;;11.80;99.90;;;;;;4937389;29;20295;-80
2024/01/24 07:15:39;;;;;;;5.78;2.97;;;11.70;99.90;;;;;;4938840;29;20559;-80
2024/01/24 07:18:09;;;;;;;9.68;3.33;;;11.70;99.90;;;;;;4939458;29;20244;-80
2024/01/24 07:20:36;;;;;;;8.27;4.18;;;11.60;99.90;;;;;;4938970;29;20241;-80
2024/01/24 07:23:03;;;;;;;11.27;3.85;;;11.50;99.90;;;;;;4939271;29;20224;-80
2024/01/24 07:25:30;;;;;;;8.23;3.30;;;11.50;99.90;;;;;;4939427;29;20537;-80
2024/01/24 07:27:57;;;;;;;13.70;4.95;;;11.50;99.90;;;;;;4939079;29;20228;-80
2024/01/24 07:30:24;;;;;;;5.75;3.92;;;11.50;99.90;;;;;;4939344;29;20228;-80
2024/01/24 07:32:51;;;;;;;11.77;4.90;;;11.50;99.90;;;;;;4938788;29;20232;-80
2024/01/24 07:35:20;;;;;;;8.52;4.05;;;11.60;99.90;;;;;;4938871;29;20240;-80
2024/01/24 07:37:47;;;;;;;8.75;3.05;;;11.60;99.90;;;;;;4938797;29;20589;-80
2024/01/24 07:40:15;;;;;;;7.13;2.90;;;11.60;99.90;;;;;;4939061;29;20224;-80
2024/01/24 07:42:42;;;;;;;7.45;2.78;;;11.60;99.90;;;;;;4938569;29;20675;-79
2024/01/24 07:45:10;;;;;;;6.18;2.83;;;11.60;99.90;;;;;;4938671;29;20564;-78
2024/01/24 07:47:37;;;;;;;15.88;5.05;;;11.60;99.90;;;;;;4938898;29;20247;-77
2024/01/24 07:50:05;;;;;;;11.90;4.60;;;11.70;99.90;;;;;;4938420;29;20231;-80
2024/01/24 07:52:34;;;;;;;7.53;2.92;;;11.70;99.90;;;;;;4939011;29;20232;-80
2024/01/24 07:55:01;;;;;;;7.97;3.28;;;11.70;99.90;;;;;;4938095;29;20288;-79
2024/01/24 07:57:28;;;;;;;9.43;3.30;;;11.80;99.90;;;;;;4938725;29;20225;-80
2024/01/24 07:59:55;;;;;;;10.23;3.55;;;11.80;99.90;;;;;;4938247;29;20292;-80
2024/01/24 08:02:23;;;;;;;20.63;3.85;;;11.80;99.90;;;;;;4938508;29;20229;-80
2024/01/24 08:04:50;;;;;;;10.80;3.47;;;11.90;99.90;;;;;;4937880;29;20232;-78
2024/01/24 08:07:17;;;;;;;6.82;3.47;;;11.90;99.90;;;;;;4938721;29;20224;-79
2024/01/24 08:09:49;;;;;;;8.40;3.78;;;11.90;99.90;;;;;;4937971;29;20553;-80
2024/01/24 08:12:18;;;;;;;8.80;3.75;;;11.90;99.90;;;;;;4938264;29;20232;-79
2024/01/24 08:14:45;;;;;;;8.60;4.13;;;12.00;99.90;;;;;;4937935;29;20235;-80
2024/01/24 08:17:13;;;;;;;20.33;5.28;;;12.00;99.90;;;;;;4938516;29;20216;-81
2024/01/24 08:19:41;;;;;;;10.02;3.03;;;12.00;99.90;;;;;;4938235;29;20714;-77
2024/01/24 08:22:08;;;;;;;10.68;2.83;;;12.00;99.90;;;;;;4937893;29;20679;-76
2024/01/24 08:24:35;;;;;;;10.98;3.47;;;12.00;99.90;;;;;;4937495;29;20229;-76
2024/01/24 08:27:03;;;;;;;15.35;8.65;;;12.10;99.90;;;;;;4937834;29;20225;-76
2024/01/24 08:29:30;;;;;;;9.90;4.90;;;12.10;99.90;;;;;;4938296;29;20232;-77
2024/01/24 08:32:03;;;;;;;13.32;7.13;;;12.10;99.90;;;;;;4937352;29;20243;-77
2024/01/24 08:34:32;;;;;;;12.20;7.03;;;12.20;99.90;;;;;;4937813;29;20228;-78
2024/01/24 08:36:59;;;;;;;4.90;3.80;;;12.10;99.90;;;;;;4937779;29;20559;-76
2024/01/24 08:39:29;;;;;;;6.93;4.50;;;12.20;99.90;;;;;;4937908;29;20295;-77
2024/01/24 08:41:56;;;;;;;6.30;3.55;;;12.20;99.90;;;;;;4937198;29;20267;-77
2024/01/24 08:44:24;;;;;;;10.73;7.47;;;12.20;99.90;;;;;;4937658;29;20232;-78
2024/01/24 08:46:51;;;;;;;10.38;3.75;;;12.20;99.90;;;;;;4937430;29;20236;-76
2024/01/24 08:49:23;;;;;;;7.97;3.80;;;12.30;99.90;;;;;;4938146;29;20344;-77
2024/01/24 08:51:50;;;;;;;9.27;3.40;;;12.30;99.90;;;;;;4937160;29;20236;-77
2024/01/24 08:54:17;;;;;;;9.95;6.03;;;12.30;99.90;;;;;;4937483;29;20651;-76
2024/01/24 08:56:44;;;;;;;7.40;3.00;;;12.30;99.90;;;;;;4937549;29;20691;-76
2024/01/24 08:59:11;;;;;;;13.20;4.60;;;12.30;99.90;;;;;;4937181;29;20235;-76
2024/01/24 09:01:39;;;;;;;6.15;2.78;;;12.20;99.90;;;;;;4937387;29;20227;-79
2024/01/24 09:04:06;;;;;;;9.50;3.20;;;12.10;99.90;;;;;;4936975;29;20229;-79
2024/01/24 09:06:33;;;;;;;10.85;4.18;;;12.00;99.90;;;;;;4937533;29;20233;-79
2024/01/24 09:09:00;;;;;;;11.68;5.45;;;12.00;99.90;;;;;;4936728;29;20229;-79
2024/01/24 09:11:27;;;;;;;9.98;3.70;;;11.90;99.90;;;;;;4937634;29;20564;-79
2024/01/24 09:13:54;;;;;;;6.35;2.65;;;11.80;99.90;;;;;;4936614;29;20225;-79
2024/01/24 09:16:21;;;;;;;8.60;3.88;;;11.80;99.90;;;;;;4937177;29;20565;-79
2024/01/24 09:18:49;;;;;;;9.43;4.22;;;11.70;99.90;;;;;;4937247;29;20225;-79
2024/01/24 09:21:16;;;;;;;9.57;2.33;;;11.60;99.90;;;;;;4936611;29;20224;-76
2024/01/24 09:23:44;;;;;;;7.97;3.05;;;11.60;99.90;;;;;;4936744;29;20239;-76
2024/01/24 09:26:11;;;;;;;11.32;5.53;;;11.50;99.90;;;;;;4935920;29;20232;-79
2024/01/24 09:28:38;;;;;;;7.20;4.05;;;11.50;99.90;;;;;;4936734;29;20225;-79
2024/01/24 09:31:05;;;;;;;8.10;2.70;;;11.50;99.90;;;;;;4936444;29;20239;-79
2024/01/24 09:33:32;;;;;;;5.78;3.30;;;11.60;99.90;;;;;;4936290;29;20243;-79
2024/01/24 09:36:00;;;;;;;5.75;2.22;;;11.60;99.90;;;;;;4935627;29;20228;-78
2024/01/24 09:38:27;;;;;;;8.63;3.00;;;11.60;99.90;;;;;;4936635;29;20228;-76
2024/01/24 09:41:00;;;;;;;7.35;3.22;;;11.60;99.90;;;;;;4936635;29;20236;-76
2024/01/24 09:43:31;;;;;;;8.63;2.88;;;11.60;99.90;;;;;;4936569;29;20315;-76
2024/01/24 09:45:59;;;;;;;10.85;4.13;;;11.60;99.90;;;;;;4936203;29;20280;-77
2024/01/24 09:48:27;;;;;;;15.00;6.30;;;11.50;99.90;;;;;;4936561;29;20232;-76
2024/01/24 09:50:54;;;;;;;11.93;6.18;;;11.60;99.90;;;;;;4936506;29;20225;-76
2024/01/24 09:53:23;;;;;;;6.82;3.45;;;11.70;99.90;;;;;;4936085;29;20573;-76
2024/01/24 09:55:51;;;;;;;8.65;3.05;;;11.70;99.90;;;;;;4936635;29;20232;-76
2024/01/24 09:58:18;;;;;;;6.55;3.05;;;11.70;99.90;;;;;;4935668;29;20224;-76
2024/01/24 10:00:47;;;;;;;12.55;3.17;;;11.80;99.90;;;;;;4936572;29;20818;-76
2024/01/24 10:03:18;;;;;;;11.10;3.88;;;11.80;99.90;;;;;;4936156;29;20260;-78
2024/01/24 10:05:47;;;;;;;11.20;4.10;;;11.80;99.90;;;;;;4936549;29;20229;-77
2024/01/24 10:08:15;;;;;;;8.43;2.80;;;11.90;99.90;;;;;;4935726;29;20244;-76
2024/01/24 10:10:45;;;;;;;12.93;2.92;;;11.90;99.90;;;;;;4936471;29;20315;-76
2024/01/24 10:13:12;;;;;;;5.07;2.85;;;12.00;99.90;;;;;;4935514;29;20344;-76
2024/01/24 10:15:39;;;;;;;10.63;3.80;;;12.10;99.90;;;;;;4936266;29;20232;-76
2024/01/24 10:18:08;;;;;;;10.55;4.75;;;12.10;99.90;;;;;;4935824;29;20659;-76
2024/01/24 10:20:35;;;;;;;10.18;3.88;;;12.20;99.90;;;;;;4936084;29;20233;-76
2024/01/24 10:23:02;;;;;;;10.85;4.32;;;12.20;99.90;;;;;;4924891;29;20245;-77
2024/01/24 10:25:29;;;;;;;13.60;4.97;;;12.20;99.90;;;;;;4936162;29;20247;-76
2024/01/24 10:27:59;;;;;;;14.80;6.18;;;12.20;99.90;;;;;;4936086;29;20562;-76
2024/01/24 10:30:27;;;;;;;10.85;5.18;;;12.30;99.90;;;;;;4935181;29;20651;-76
2024/01/24 10:32:54;;;;;;;12.77;4.07;;;12.30;99.90;;;;;;4935950;29;20308;-76
2024/01/24 10:35:21;;;;;;;13.23;4.10;;;12.40;99.90;;;;;;4935508;29;20243;-76
2024/01/24 10:37:48;;;;;;;13.02;4.88;;;12.40;99.90;;;;;;4935915;29;20301;-76
2024/01/24 10:40:21;;;;;;;11.48;3.60;;;12.40;99.90;;;;;;4935525;29;20228;-76
2024/01/24 10:42:54;;;;;;;9.35;4.28;;;12.50;99.90;;;;;;4935950;29;20228;-76
2024/01/24 10:45:25;;;;;;;13.00;3.90;;;12.50;99.90;;;;;;4935421;29;20236;-76
2024/01/24 10:47:53;;;;;;;19.33;4.45;;;12.60;99.90;;;;;;4937379;29;20690;-76
2024/01/24 10:50:23;;;;;;;12.07;5.45;;;12.60;99.90;;;;;;4939423;29;20596;-79
2024/01/24 10:52:51;;;;;;;15.57;4.25;;;12.60;99.90;;;;;;4939704;29;20236;-79
2024/01/24 10:55:18;;;;;;;12.00;4.28;;;12.60;99.90;;;;;;4939367;29;20252;-79
2024/01/24 10:57:48;;;;;;;13.35;4.97;;;12.70;99.90;;;;;;4939870;29;20287;-79
2024/01/24 11:00:19;;;;;;;15.40;4.72;;;12.60;99.90;;;;;;4938402;29;20229;-79
2024/01/24 11:02:47;;;;;;;17.55;4.30;;;12.60;99.90;;;;;;4939699;29;20312;-76
2024/01/24 11:05:19;;;;;;;12.38;3.78;;;12.70;99.90;;;;;;4939250;29;20385;-79
2024/01/24 11:07:57;;;;;;;14.07;4.50;;;12.70;99.90;;;;;;4939448;29;20289;-79
2024/01/24 11:10:29;;;;;;;11.13;3.33;;;12.60;99.90;;;;;;4938755;29;20232;-79
2024/01/24 11:12:56;;;;;;;14.77;4.28;;;12.70;99.90;;;;;;4939575;29;20228;-79
2024/01/24 11:15:26;;;;;;;14.63;3.80;;;12.60;99.90;;;;;;4938983;29;20235;-79
2024/01/24 11:18:20;;;;;;;17.02;4.45;;;12.60;99.90;;;;;;4939342;29;20239;-79
2024/01/24 11:20:47;;;;;;;14.25;3.95;;;12.70;99.90;;;;;;4939710;29;20348;-79
2024/01/24 11:23:34;;;;;;;15.05;5.63;;;12.70;99.90;;;;;;4938653;29;20276;-79
2024/01/24 11:26:01;;;;;;;12.30;3.50;;;12.70;99.90;;;;;;4938623;29;20680;-79
2024/01/24 11:28:28;;;;;;;13.20;3.60;;;12.70;99.90;;;;;;4939092;29;20630;-79
2024/01/24 11:30:56;;;;;;;14.30;3.72;;;12.70;99.90;;;;;;4938819;29;20229;-79
2024/01/24 11:33:24;;;;;;;7.72;2.95;;;12.60;99.90;;;;;;4939323;29;20299;-80
2024/01/24 11:35:53;;;;;;;14.88;4.60;;;12.60;99.90;;;;;;4938719;29;20578;-80
2024/01/24 11:38:37;;;;;;;7.63;3.53;;;12.60;99.90;;;;;;4939079;29;20268;-80
2024/01/24 11:41:22;;;;;;;10.13;3.58;;;12.70;99.90;;;;;;4938116;29;20236;-79
2024/01/24 11:43:50;;;;;;;9.80;3.60;;;12.70;99.90;;;;;;4938913;29;20229;-79
2024/01/24 11:46:16;;;;;;;9.43;4.00;;;12.70;99.90;;;;;;4938608;29;20239;-79
2024/01/24 11:48:45;;;;;;;10.07;3.83;;;12.70;99.90;;;;;;4938856;29;20573;-79
2024/01/24 11:51:17;;;;;;;9.73;3.15;;;12.70;99.90;;;;;;4938109;29;20224;-79
2024/01/24 11:53:45;;;;;;;8.48;4.10;;;12.70;99.90;;;;;;4938787;29;20232;-79
2024/01/24 11:56:14;;;;;;;15.55;4.47;;;12.70;99.90;;;;;;4937974;29;20225;-79
2024/01/24 11:58:41;;;;;;;17.25;4.80;;;12.80;99.90;;;;;;4938256;29;20277;-79
2024/01/24 12:01:10;;;;;;;8.07;3.88;;;12.80;99.90;;;;;;4938016;29;20284;-79
2024/01/24 12:03:37;;;;;;;12.38;4.90;;;12.80;99.90;;;;;;4938513;29;20236;-79
2024/01/24 12:06:10;;;;;;;10.25;3.75;;;12.80;99.90;;;;;;4937991;29;20228;-79
2024/01/24 12:08:38;;;;;;;13.07;3.85;;;12.80;99.90;;;;;;4938276;29;20225;-79
2024/01/24 12:11:09;;;;;;;13.63;4.15;;;12.80;99.90;;;;;;4938206;29;20221;-79
2024/01/24 12:13:36;;;;;;;15.00;5.22;;;12.80;99.90;;;;;;4938483;29;20232;-79
2024/01/24 12:16:03;;;;;;;12.73;5.03;;;12.80;99.90;;;;;;4937829;29;20316;-80
2024/01/24 12:18:34;;;;;;;9.95;5.00;;;12.80;99.90;;;;;;4938538;29;20233;-80
2024/01/24 12:21:05;;;;;;;8.88;3.88;;;12.90;99.90;;;;;;4937649;29;20260;-79
2024/01/24 12:23:33;;;;;;;7.70;3.42;;;12.90;99.90;;;;;;4938124;29;20243;-80
2024/01/24 12:26:01;;;;;;;11.88;4.95;;;12.90;99.90;;;;;;4937586;29;20228;-80
2024/01/24 12:28:28;;;;;;;11.95;4.88;;;12.90;99.90;;;;;;4938286;29;20251;-79
2024/01/24 12:30:57;;;;;;;11.30;3.88;;;13.00;99.90;;;;;;4938082;29;20570;-78
2024/01/24 12:33:24;;;;;;;13.18;4.65;;;13.00;99.90;;;;;;4937276;29;20225;-79
2024/01/24 12:35:51;;;;;;;18.13;5.18;;;12.90;99.90;;;;;;4938192;29;20229;-79
2024/01/24 12:38:18;;;;;;;13.57;5.63;;;12.90;99.90;;;;;;4937486;29;20229;-79
2024/01/24 12:40:52;;;;;;;15.32;7.25;;;12.90;99.90;;;;;;4940208;29;20229;-76
2024/01/24 12:43:21;;;;;;;12.63;5.55;;;13.00;99.90;;;;;;4938375;29;20298;-79
2024/01/24 12:45:49;;;;;;;11.40;5.13;;;12.90;99.90;;;;;;4927674;29;20268;-78
2024/01/24 12:48:16;;;;;;;13.82;4.85;;;12.90;99.90;;;;;;4937763;29;20236;-79
2024/01/24 12:50:43;;;;;;;9.20;3.45;;;12.80;99.90;;;;;;4937874;29;20239;-79
2024/01/24 12:53:11;;;;;;;15.43;4.80;;;12.90;99.90;;;;;;4936268;29;20240;-79